createdAt,value
2019-01-10T00:00:18.146Z,0.50
2019-01-10T00:02:46.593Z,0.00
2019-01-10T00:05:15.224Z,0.00
2019-01-10T00:07:43.731Z,0.00
2019-01-10T00:10:16.831Z,0.00
2019-01-10T00:12:45.282Z,0.00
2019-01-10T00:15:16.301Z,0.13
2019-01-10T00:17:44.838Z,0.00
2019-01-10T00:20:15.368Z,0.37
2019-01-10T00:22:43.784Z,0.00
2019-01-10T00:25:13.867Z,0.23
2019-01-10T00:27:42.277Z,0.00
2019-01-10T00:30:13.821Z,0.00
2019-01-10T00:32:42.344Z,0.00
2019-01-10T00:35:11.426Z,0.80
2019-01-10T00:37:39.869Z,0.00
2019-01-10T00:40:11.134Z,0.00
2019-01-10T00:42:48.763Z,0.10
2019-01-10T00:45:12.453Z,0.00
2019-01-10T00:47:40.971Z,0.10
2019-01-10T00:50:15.178Z,0.00
2019-01-10T00:52:43.624Z,0.00
2019-01-10T00:55:12.216Z,0.00
2019-01-10T00:57:40.720Z,0.10
2019-01-10T01:00:12.423Z,1.63
2019-01-10T01:02:40.950Z,0.00
2019-01-10T01:05:11.851Z,0.43
2019-01-10T01:07:40.393Z,0.00
2019-01-10T01:10:15.045Z,0.00
2019-01-10T01:12:43.429Z,0.00
2019-01-10T01:15:14.501Z,0.00
2019-01-10T01:17:42.933Z,0.00
2019-01-10T01:20:13.813Z,0.10
2019-01-10T01:22:42.195Z,0.00
2019-01-10T01:25:12.092Z,0.17
2019-01-10T01:27:40.504Z,0.00
2019-01-10T01:30:20.641Z,0.00
2019-01-10T01:32:49.094Z,0.47
2019-01-10T01:35:17.647Z,0.00
2019-01-10T01:37:46.352Z,0.00
2019-01-10T01:40:17.358Z,0.00
2019-01-10T01:42:46.107Z,1.80
2019-01-10T01:45:16.890Z,0.47
2019-01-10T01:47:45.569Z,0.00
2019-01-10T01:50:19.723Z,0.00
2019-01-10T01:52:48.290Z,1.23
2019-01-10T01:55:16.734Z,0.03
2019-01-10T01:57:45.259Z,0.80
2019-01-10T02:00:16.877Z,0.00
2019-01-10T02:02:45.331Z,0.20
2019-01-10T02:05:14.499Z,0.30
2019-01-10T02:07:43.021Z,0.87
2019-01-10T02:10:14.688Z,0.00
2019-01-10T02:12:43.093Z,0.00
2019-01-10T02:15:11.901Z,0.00
2019-01-10T02:17:48.731Z,0.00
2019-01-10T02:20:12.514Z,0.43
2019-01-10T02:22:41.017Z,0.50
2019-01-10T02:25:11.807Z,0.20
2019-01-10T02:27:40.408Z,0.73
2019-01-10T02:30:14.527Z,0.30
2019-01-10T02:32:43.014Z,0.00
2019-01-10T02:35:11.846Z,0.00
2019-01-10T02:37:40.285Z,0.17
2019-01-10T02:40:09.601Z,0.37
2019-01-10T02:42:38.086Z,0.37
2019-01-10T02:45:10.105Z,0.00
2019-01-10T02:47:38.521Z,0.00
2019-01-10T02:50:10.048Z,0.10
2019-01-10T02:52:38.504Z,0.00
2019-01-10T02:55:08.344Z,0.00
2019-01-10T02:57:36.782Z,0.20
2019-01-10T03:00:08.513Z,0.47
2019-01-10T03:02:36.973Z,0.20
2019-01-10T03:05:05.927Z,0.10
2019-01-10T03:07:34.473Z,0.00
2019-01-10T03:10:03.095Z,0.27
2019-01-10T03:12:31.501Z,0.00
2019-01-10T03:14:59.927Z,0.17
2019-01-10T03:17:28.418Z,0.00
2019-01-10T03:19:56.949Z,0.30
2019-01-10T03:22:25.369Z,0.30
2019-01-10T03:24:53.928Z,0.00
2019-01-10T03:27:22.381Z,0.00
2019-01-10T03:29:50.762Z,0.00
2019-01-10T03:32:19.214Z,0.00
2019-01-10T03:34:47.611Z,0.00
2019-01-10T03:37:16.153Z,0.00
2019-01-10T03:39:44.621Z,0.00
2019-01-10T03:42:13.051Z,0.00
2019-01-10T03:44:41.597Z,0.93
2019-01-10T03:47:10.084Z,0.00
2019-01-10T03:49:38.569Z,0.47
2019-01-10T03:52:07.035Z,0.00
2019-01-10T03:54:35.546Z,0.00
2019-01-10T03:57:03.953Z,0.90
2019-01-10T03:59:32.390Z,0.07
2019-01-10T04:02:03.453Z,0.00
2019-01-10T04:04:31.916Z,0.00
2019-01-10T04:07:00.338Z,0.00
2019-01-10T04:09:28.810Z,0.00
2019-01-10T04:11:57.273Z,0.00
2019-01-10T04:14:25.757Z,1.40
2019-01-10T04:16:54.248Z,1.27
2019-01-10T04:19:22.735Z,0.00
2019-01-10T04:21:51.193Z,0.37
2019-01-10T04:24:19.625Z,0.00
2019-01-10T04:26:48.050Z,0.00
2019-01-10T04:29:16.553Z,0.20
2019-01-10T04:31:45.007Z,0.10
2019-01-10T04:34:14.444Z,1.20
2019-01-10T04:36:42.893Z,1.80
2019-01-10T04:39:11.345Z,0.07
2019-01-10T04:41:39.774Z,5.97
2019-01-10T04:44:08.242Z,0.47
2019-01-10T04:46:36.674Z,0.23
2019-01-10T04:49:05.146Z,0.10
2019-01-10T04:51:33.618Z,0.10
2019-01-10T04:54:02.790Z,0.00
2019-01-10T04:56:31.299Z,0.10
2019-01-10T04:58:59.753Z,0.00
2019-01-10T05:01:28.173Z,0.23
2019-01-10T05:03:56.646Z,1.13
2019-01-10T05:06:25.083Z,0.00
2019-01-10T05:08:53.534Z,0.57
2019-01-10T05:11:21.964Z,0.70
2019-01-10T05:13:50.401Z,0.13
2019-01-10T05:16:18.874Z,0.13
2019-01-10T05:18:47.319Z,2.93
2019-01-10T05:21:15.701Z,0.00
2019-01-10T05:23:44.126Z,0.00
2019-01-10T05:26:12.577Z,0.57
2019-01-10T05:28:40.970Z,0.00
2019-01-10T05:31:09.427Z,0.00
2019-01-10T05:33:37.813Z,0.20
2019-01-10T05:36:06.431Z,0.37
2019-01-10T05:38:34.838Z,0.00
2019-01-10T05:41:03.233Z,0.30
2019-01-10T05:43:31.669Z,0.00
2019-01-10T05:46:00.155Z,0.00
2019-01-10T05:48:28.621Z,0.00
2019-01-10T05:50:57.098Z,0.47
2019-01-10T05:53:25.569Z,0.00
2019-01-10T05:55:54.010Z,0.00
2019-01-10T05:58:22.445Z,0.00
2019-01-10T06:00:50.896Z,0.50
2019-01-10T06:03:19.340Z,0.00
2019-01-10T06:05:47.748Z,0.00
2019-01-10T06:08:16.169Z,0.00
2019-01-10T06:10:45.744Z,0.00
2019-01-10T06:13:14.340Z,0.63
2019-01-10T06:15:42.777Z,0.00
2019-01-10T06:18:11.196Z,0.83
2019-01-10T06:20:39.723Z,0.47
2019-01-10T06:23:08.148Z,0.20
2019-01-10T06:25:36.587Z,0.00
2019-01-10T06:28:05.105Z,1.23
2019-01-10T06:30:33.513Z,0.40
2019-01-10T06:33:02.319Z,0.00
2019-01-10T06:35:30.761Z,0.00
2019-01-10T06:37:59.193Z,1.07
2019-01-10T06:40:27.611Z,0.17
2019-01-10T06:42:56.049Z,3.00
2019-01-10T06:45:24.560Z,0.23
2019-01-10T06:47:52.965Z,0.47
2019-01-10T06:50:21.441Z,0.83
2019-01-10T06:52:49.919Z,0.37
2019-01-10T06:55:18.388Z,4.63
2019-01-10T06:57:46.910Z,1.23
2019-01-10T07:00:20.745Z,0.83
2019-01-10T07:02:49.485Z,0.57
2019-01-10T07:05:17.902Z,1.53
2019-01-10T07:07:55.829Z,1.90
2019-01-10T07:10:22.254Z,1.27
2019-01-10T07:12:50.673Z,0.97
2019-01-10T07:15:19.192Z,1.70
2019-01-10T07:17:47.618Z,2.53
2019-01-10T07:20:16.180Z,0.73
2019-01-10T07:22:47.171Z,0.43
2019-01-10T07:25:15.674Z,0.50
2019-01-10T07:27:44.173Z,1.17
2019-01-10T07:30:18.025Z,0.40
2019-01-10T07:32:46.498Z,1.07
2019-01-10T07:35:15.093Z,0.10
2019-01-10T07:37:47.392Z,1.10
2019-01-10T07:40:16.332Z,0.50
2019-01-10T07:42:44.755Z,1.40
2019-01-10T07:45:16.197Z,3.77
2019-01-10T07:47:47.833Z,7.53
2019-01-10T07:50:18.032Z,2.77
2019-01-10T07:52:47.519Z,1.47
2019-01-10T07:55:16.136Z,0.93
2019-01-10T07:57:44.653Z,1.90
2019-01-10T08:00:20.355Z,0.53
2019-01-10T08:02:48.887Z,1.23
2019-01-10T08:05:17.380Z,0.93
2019-01-10T08:07:45.956Z,1.50
2019-01-10T08:10:16.283Z,1.03
2019-01-10T08:12:44.958Z,4.80
2019-01-10T08:15:19.219Z,1.10
2019-01-10T08:17:47.643Z,1.67
2019-01-10T08:20:16.212Z,2.33
2019-01-10T08:22:44.678Z,1.00
2019-01-10T08:25:13.132Z,2.17
2019-01-10T08:27:41.749Z,0.90
2019-01-10T08:30:21.275Z,0.97
2019-01-10T08:32:49.800Z,1.10
2019-01-10T08:35:20.849Z,1.53
2019-01-10T08:37:49.373Z,2.47
2019-01-10T08:40:17.922Z,0.63
2019-01-10T08:42:46.331Z,1.20
2019-01-10T08:45:21.497Z,0.93
2019-01-10T08:47:45.148Z,1.00
2019-01-10T08:50:16.720Z,1.70
2019-01-10T08:52:45.327Z,1.90
2019-01-10T08:55:13.738Z,0.73
2019-01-10T08:57:42.210Z,0.93
2019-01-10T09:00:16.349Z,0.93
2019-01-10T09:02:44.740Z,1.83
2019-01-10T09:05:13.303Z,1.40
2019-01-10T09:07:41.729Z,1.53
2019-01-10T09:10:18.777Z,1.40
2019-01-10T09:12:47.206Z,1.47
2019-01-10T09:15:23.261Z,0.83
2019-01-10T09:17:45.872Z,0.50
2019-01-10T09:20:14.677Z,1.20
2019-01-10T09:22:43.081Z,1.00
2019-01-10T09:25:11.669Z,0.80
2019-01-10T09:27:40.201Z,2.70
2019-01-10T09:30:14.168Z,1.73
2019-01-10T09:32:42.748Z,2.40
2019-01-10T09:35:11.281Z,4.80
2019-01-10T09:37:39.789Z,1.70
2019-01-10T09:40:14.204Z,1.63
2019-01-10T09:42:43.668Z,2.97
2019-01-10T09:45:15.004Z,2.87
2019-01-10T09:47:43.434Z,3.00
2019-01-10T09:50:14.870Z,2.97
2019-01-10T09:52:44.642Z,1.97
2019-01-10T09:55:13.582Z,2.30
2019-01-10T09:57:42.071Z,1.73
2019-01-10T10:00:22.151Z,1.37
2019-01-10T10:02:50.576Z,0.57
2019-01-10T10:05:19.006Z,2.03
2019-01-10T10:07:47.512Z,1.90
2019-01-10T10:10:17.641Z,3.90
2019-01-10T10:12:46.226Z,1.80
2019-01-10T10:15:16.184Z,1.47
2019-01-10T10:17:44.599Z,3.20
2019-01-10T10:20:16.562Z,4.63
2019-01-10T10:22:44.957Z,4.93
2019-01-10T10:25:13.444Z,5.77
2019-01-10T10:27:41.889Z,5.60
2019-01-10T10:30:15.665Z,3.23
2019-01-10T10:32:44.079Z,6.43
2019-01-10T10:35:12.772Z,1.53
2019-01-10T10:37:41.298Z,4.07
2019-01-10T10:40:12.653Z,4.60
2019-01-10T10:42:41.146Z,6.07
2019-01-10T10:45:12.611Z,1.77
2019-01-10T10:47:41.070Z,3.97
2019-01-10T10:50:14.919Z,7.13
2019-01-10T10:52:43.343Z,3.47
2019-01-10T10:55:12.000Z,4.03
2019-01-10T10:57:40.409Z,8.63
2019-01-10T11:00:15.137Z,3.67
2019-01-10T11:02:43.592Z,3.17
2019-01-10T11:05:12.063Z,3.23
2019-01-10T11:07:40.580Z,2.93
2019-01-10T11:10:14.833Z,3.10
2019-01-10T11:12:43.252Z,3.47
2019-01-10T11:15:12.038Z,4.97
2019-01-10T11:17:40.476Z,3.60
2019-01-10T11:20:11.692Z,1.60
2019-01-10T11:22:40.148Z,5.30
2019-01-10T11:25:11.941Z,4.73
2019-01-10T11:27:40.561Z,3.37
2019-01-10T11:30:12.446Z,3.90
2019-01-10T11:32:40.869Z,3.83
2019-01-10T11:35:10.337Z,2.63
2019-01-10T11:37:38.753Z,3.30
2019-01-10T11:40:13.421Z,3.10
2019-01-10T11:42:41.802Z,2.87
2019-01-10T11:45:13.499Z,3.03
2019-01-10T11:47:41.973Z,3.17
2019-01-10T11:50:12.867Z,3.37
2019-01-10T11:52:41.313Z,4.80
2019-01-10T11:55:10.177Z,5.47
2019-01-10T11:57:38.661Z,4.43
2019-01-10T12:00:10.498Z,3.83
2019-01-10T12:02:39.005Z,3.23
2019-01-10T12:05:08.905Z,2.20
2019-01-10T12:07:37.331Z,6.20
2019-01-10T12:10:08.806Z,2.37
2019-01-10T12:12:37.210Z,3.90
2019-01-10T12:15:09.172Z,4.27
2019-01-10T12:17:37.575Z,5.07
2019-01-10T12:20:11.556Z,8.50
2019-01-10T12:22:39.978Z,6.33
2019-01-10T12:25:10.824Z,7.53
2019-01-10T12:27:39.290Z,4.97
2019-01-10T12:30:13.643Z,8.57
2019-01-10T12:32:42.144Z,5.10
2019-01-10T12:35:10.704Z,5.57
2019-01-10T12:37:39.185Z,7.23
2019-01-10T12:40:10.509Z,6.47
2019-01-10T12:42:38.944Z,5.43
2019-01-10T12:45:10.120Z,7.17
2019-01-10T12:47:38.605Z,5.17
2019-01-10T12:50:15.699Z,4.60
2019-01-10T12:52:44.161Z,8.93
2019-01-10T12:55:12.646Z,6.23
2019-01-10T12:57:41.150Z,4.40
2019-01-10T13:00:12.657Z,2.23
2019-01-10T13:02:41.143Z,3.13
2019-01-10T13:05:09.813Z,10.63
2019-01-10T13:07:38.212Z,4.47
2019-01-10T13:10:09.877Z,4.03
2019-01-10T13:12:38.385Z,5.43
2019-01-10T13:15:10.015Z,5.90
2019-01-10T13:17:38.447Z,3.20
2019-01-10T13:20:09.597Z,3.40
2019-01-10T13:22:38.113Z,4.00
2019-01-10T13:25:09.654Z,3.77
2019-01-10T13:27:38.196Z,2.87
2019-01-10T13:30:09.717Z,3.33
2019-01-10T13:32:38.189Z,4.70
2019-01-10T13:35:08.342Z,7.33
2019-01-10T13:37:36.785Z,6.17
2019-01-10T13:40:08.108Z,7.20
2019-01-10T13:42:36.716Z,10.87
2019-01-10T13:45:07.138Z,4.27
2019-01-10T13:47:35.618Z,3.07
2019-01-10T13:50:11.345Z,7.43
2019-01-10T13:52:37.369Z,0.73
2019-01-10T13:55:08.395Z,1.97
2019-01-10T13:57:36.781Z,2.20
2019-01-10T14:00:17.086Z,1.23
2019-01-10T14:02:45.587Z,9.80
2019-01-10T14:05:14.171Z,5.60
2019-01-10T14:07:42.598Z,7.53
2019-01-10T14:10:13.346Z,10.53
2019-01-10T14:12:41.749Z,9.20
2019-01-10T14:15:13.857Z,9.90
2019-01-10T14:17:42.363Z,19.57
2019-01-10T14:20:12.595Z,15.97
2019-01-10T14:22:40.969Z,8.63
2019-01-10T14:25:09.767Z,12.77
2019-01-10T14:27:38.427Z,16.80
2019-01-10T14:30:18.849Z,13.77
2019-01-10T14:32:47.589Z,14.00
2019-01-10T14:35:16.052Z,12.97
2019-01-10T14:37:44.613Z,10.60
2019-01-10T14:40:13.317Z,17.80
2019-01-10T14:42:41.723Z,16.53
2019-01-10T14:45:13.163Z,16.50
2019-01-10T14:47:41.626Z,20.17
2019-01-10T14:50:11.709Z,14.37
2019-01-10T14:52:40.150Z,30.10
2019-01-10T14:55:11.486Z,14.17
2019-01-10T14:57:40.338Z,21.13
2019-01-10T15:00:14.396Z,9.63
2019-01-10T15:02:42.944Z,11.27
2019-01-10T15:05:11.557Z,14.13
2019-01-10T15:07:39.957Z,13.27
2019-01-10T15:10:09.792Z,10.83
2019-01-10T15:12:38.289Z,11.80
2019-01-10T15:15:09.802Z,13.43
2019-01-10T15:17:38.223Z,12.27
2019-01-10T15:20:09.770Z,13.00
2019-01-10T15:22:38.235Z,16.03
2019-01-10T15:25:06.922Z,13.27
2019-01-10T15:27:35.336Z,10.53
2019-01-10T15:30:24.215Z,19.67
2019-01-10T15:32:52.649Z,16.37
2019-01-10T15:35:21.208Z,15.77
2019-01-10T15:37:49.700Z,18.17
2019-01-10T15:40:26.899Z,18.60
2019-01-10T15:42:55.482Z,14.33
2019-01-10T15:45:24.022Z,15.77
2019-01-10T15:47:52.543Z,13.87
2019-01-10T15:50:21.096Z,16.57
2019-01-10T15:52:49.647Z,17.10
2019-01-10T15:55:20.111Z,17.10
2019-01-10T15:57:48.612Z,16.40
2019-01-10T16:00:22.357Z,10.30
2019-01-10T16:02:51.064Z,8.97
2019-01-10T16:05:19.631Z,15.00
2019-01-10T16:07:48.171Z,11.33
2019-01-10T16:10:18.214Z,10.33
2019-01-10T16:12:46.878Z,12.13
2019-01-10T16:15:17.889Z,20.23
2019-01-10T16:17:46.323Z,14.17
2019-01-10T16:20:15.304Z,15.00
2019-01-10T16:22:44.114Z,11.33
2019-01-10T16:25:14.448Z,11.77
2019-01-10T16:27:42.956Z,14.87
2019-01-10T16:30:23.132Z,16.87
2019-01-10T16:32:51.689Z,17.43
2019-01-10T16:35:20.135Z,12.37
2019-01-10T16:37:48.949Z,13.27
2019-01-10T16:40:18.196Z,11.30
2019-01-10T16:42:46.652Z,13.60
2019-01-10T16:45:23.429Z,15.10
2019-01-10T16:47:51.874Z,12.83
2019-01-10T16:50:20.299Z,14.47
2019-01-10T16:52:48.725Z,28.97
2019-01-10T16:55:17.253Z,64.17
2019-01-10T16:57:45.732Z,50.57
2019-01-10T17:00:27.006Z,32.83
2019-01-10T17:02:56.461Z,31.63
2019-01-10T17:05:24.961Z,65.60
2019-01-10T17:07:53.516Z,31.57
2019-01-10T17:10:22.112Z,18.40
2019-01-10T17:12:50.644Z,37.60
2019-01-10T17:15:19.239Z,30.40
2019-01-10T17:17:47.699Z,15.70
2019-01-10T17:20:21.058Z,16.33
2019-01-10T17:22:49.513Z,15.07
2019-01-10T17:25:19.633Z,16.67
2019-01-10T17:27:48.267Z,11.73
2019-01-10T17:30:24.946Z,9.80
2019-01-10T17:32:53.800Z,15.17
2019-01-10T17:35:24.937Z,12.67
2019-01-10T17:37:53.404Z,16.47
2019-01-10T17:40:22.647Z,15.20
2019-01-10T17:42:51.339Z,10.97
2019-01-10T17:45:28.489Z,10.90
2019-01-10T17:47:56.969Z,15.63
2019-01-10T17:50:25.455Z,8.50
2019-01-10T17:52:53.927Z,21.87
2019-01-10T17:55:22.386Z,6.07
2019-01-10T17:57:50.837Z,13.97
2019-01-10T18:00:24.936Z,8.50
2019-01-10T18:02:53.465Z,11.37
2019-01-10T18:05:21.976Z,8.77
2019-01-10T18:07:50.403Z,7.00
2019-01-10T18:10:20.785Z,5.93
2019-01-10T18:12:49.291Z,20.90
2019-01-10T18:15:23.294Z,15.93
2019-01-10T18:17:51.757Z,13.17
2019-01-10T18:20:25.510Z,6.60
2019-01-10T18:22:54.247Z,8.97
2019-01-10T18:25:22.662Z,8.60
2019-01-10T18:27:51.106Z,10.60
2019-01-10T18:30:22.037Z,6.33
2019-01-10T18:32:50.693Z,9.70
2019-01-10T18:35:25.556Z,8.20
2019-01-10T18:37:49.626Z,9.83
2019-01-10T18:40:18.489Z,12.27
2019-01-10T18:42:46.959Z,19.17
2019-01-10T18:45:17.967Z,10.17
2019-01-10T18:47:46.416Z,12.67
2019-01-10T18:50:17.886Z,10.60
2019-01-10T18:52:47.126Z,7.40
2019-01-10T18:55:15.623Z,6.37
2019-01-10T18:57:44.237Z,6.03
2019-01-10T19:00:15.735Z,5.00
2019-01-10T19:02:44.321Z,11.40
2019-01-10T19:05:12.977Z,8.73
2019-01-10T19:07:41.434Z,7.27
2019-01-10T19:10:13.305Z,7.43
2019-01-10T19:12:41.775Z,5.37
2019-01-10T19:15:10.467Z,5.10
2019-01-10T19:17:38.982Z,6.07
2019-01-10T19:20:10.746Z,10.43
2019-01-10T19:22:39.299Z,4.97
2019-01-10T19:25:08.090Z,5.27
2019-01-10T19:27:36.570Z,5.27
2019-01-10T19:30:11.263Z,4.43
2019-01-10T19:32:39.872Z,8.50
2019-01-10T19:35:09.253Z,4.00
2019-01-10T19:37:37.693Z,6.10
2019-01-10T19:40:09.280Z,6.53
2019-01-10T19:42:37.745Z,7.13
2019-01-10T19:45:09.512Z,4.70
2019-01-10T19:47:38.012Z,6.83
2019-01-10T19:50:10.233Z,2.90
2019-01-10T19:52:38.710Z,4.70
2019-01-10T19:55:09.085Z,10.97
2019-01-10T19:57:37.558Z,7.70
2019-01-10T20:00:09.056Z,3.53
2019-01-10T20:02:37.525Z,3.73
2019-01-10T20:05:07.647Z,6.60
2019-01-10T20:07:36.144Z,3.57
2019-01-10T20:10:07.695Z,4.20
2019-01-10T20:12:36.265Z,7.40
2019-01-10T20:15:06.680Z,5.27
2019-01-10T20:17:35.143Z,4.60
2019-01-10T20:20:06.687Z,4.90
2019-01-10T20:22:35.255Z,6.63
2019-01-10T20:25:04.431Z,6.37
2019-01-10T20:27:32.983Z,5.90
2019-01-10T20:30:02.562Z,7.63
2019-01-10T20:32:31.050Z,8.97
2019-01-10T20:34:59.455Z,4.47
2019-01-10T20:37:28.831Z,4.20
2019-01-10T20:39:57.324Z,6.67
2019-01-10T20:42:25.760Z,6.50
2019-01-10T20:44:54.154Z,4.27
2019-01-10T20:47:22.627Z,3.73
2019-01-10T20:49:51.046Z,7.40
2019-01-10T20:52:19.485Z,7.00
2019-01-10T20:54:47.945Z,11.23
2019-01-10T20:57:16.395Z,4.43
2019-01-10T20:59:44.782Z,7.83
2019-01-10T21:02:13.253Z,4.97
2019-01-10T21:04:41.689Z,4.13
2019-01-10T21:07:10.180Z,10.47
2019-01-10T21:09:38.631Z,10.80
2019-01-10T21:12:07.180Z,7.80
2019-01-10T21:14:35.575Z,5.27
2019-01-10T21:17:04.155Z,7.73
2019-01-10T21:19:32.562Z,4.50
2019-01-10T21:22:01.012Z,8.17
2019-01-10T21:24:29.434Z,7.13
2019-01-10T21:26:57.978Z,6.83
2019-01-10T21:29:26.411Z,5.13
2019-01-10T21:31:54.976Z,8.37
2019-01-10T21:34:23.445Z,5.23
2019-01-10T21:36:51.873Z,8.10
2019-01-10T21:39:20.391Z,10.07
2019-01-10T21:41:48.850Z,4.97
2019-01-10T21:44:17.325Z,8.23
2019-01-10T21:46:45.750Z,5.83
2019-01-10T21:49:14.170Z,3.57
2019-01-10T21:51:42.654Z,3.87
2019-01-10T21:54:11.074Z,2.80
2019-01-10T21:56:39.469Z,3.63
2019-01-10T21:59:07.930Z,2.70
2019-01-10T22:01:36.337Z,4.83
2019-01-10T22:04:05.516Z,3.47
2019-01-10T22:06:33.948Z,3.90
2019-01-10T22:09:02.617Z,2.87
2019-01-10T22:11:31.078Z,3.40
2019-01-10T22:14:02.137Z,2.67
2019-01-10T22:16:30.595Z,3.63
2019-01-10T22:19:00.721Z,4.50
2019-01-10T22:21:29.136Z,3.33
2019-01-10T22:23:57.570Z,4.17
2019-01-10T22:26:26.004Z,5.03
2019-01-10T22:28:54.463Z,6.57
2019-01-10T22:31:22.865Z,4.50
2019-01-10T22:33:51.308Z,3.60
2019-01-10T22:36:19.740Z,3.90
2019-01-10T22:38:48.164Z,3.27
2019-01-10T22:41:16.627Z,6.67
2019-01-10T22:43:45.101Z,7.33
2019-01-10T22:46:13.562Z,5.20
2019-01-10T22:48:47.721Z,6.80
2019-01-10T22:51:12.109Z,3.67
2019-01-10T22:53:40.578Z,5.10
2019-01-10T22:56:09.088Z,4.50
2019-01-10T22:58:37.598Z,4.67
2019-01-10T23:01:09.388Z,6.10
2019-01-10T23:03:38.492Z,4.00
2019-01-10T23:06:07.098Z,4.97
2019-01-10T23:08:39.586Z,6.17
2019-01-10T23:11:12.721Z,4.43
2019-01-10T23:13:41.179Z,6.07
2019-01-10T23:16:10.516Z,10.53
2019-01-10T23:18:40.733Z,6.50
2019-01-10T23:21:09.192Z,4.63
2019-01-10T23:23:37.631Z,10.10
2019-01-10T23:26:06.068Z,5.57
2019-01-10T23:28:37.638Z,7.60
2019-01-10T23:31:09.696Z,6.30
2019-01-10T23:33:38.145Z,4.20
2019-01-10T23:36:06.724Z,5.07
2019-01-10T23:38:35.200Z,6.90
2019-01-10T23:41:03.927Z,7.70
2019-01-10T23:43:32.370Z,5.43
2019-01-10T23:46:00.947Z,7.33
2019-01-10T23:48:29.412Z,5.63
2019-01-10T23:50:58.001Z,4.87
2019-01-10T23:53:26.496Z,5.03
2019-01-10T23:55:55.008Z,6.00
2019-01-10T23:58:23.463Z,4.73
